Annis, ID

3:58 PM MDT on August 02, 2015 (GMT -0600)
Garfield Area | | Change Station
CLOSE
Current Station
Personal Weather Station
Location: Rigby, ID
Elevation: 4820 ft
Nearby Weather Stations

Elev 4820 ft 43.64 °N, 111.96 °W | Updated 2 minutes ago

Clear
Clear
91.5 °F
Feels Like 87 °F
N
1.0
Wind Variable Wind from NW
Gusts 6.0 mph

Today
High -- | Low -- °F
--% Chance of Precip.
Yesterday
High -- | Low -- °F
Precip. -- in
6:17 AM 8:49 PM
Waning Gibbous, 91% visible
Pressure 29.86 in
Visibility 10.0 miles
Clouds Clear
Heat Index 87 °F
Dew Point 30 °F
Humidity 11%
Rainfall 0.00 in
Snow Depth Not available.
UV 8 out of 12
Pollen 6.20 out of 12
Air Quality Not available.
Flu Activity Not available.
METAR KRXE 022153Z AUTO 31005KT 10SM CLR 34/M04 A3001 RMK AO2 SLP110 T03441044

More Conditions Fewer Conditions

Pressure 29.86 in
Visibility 10.0 miles
Clouds Clear
Heat Index 87 °F
Dew Point 30 °F
Humidity 11%
Rainfall 0.00 in
Snow Depth Not available.
UV 8 out of 12
Pollen 6.20 out of 12
Air Quality Not available.
Flu Activity Not available.
METAR KRXE 022153Z AUTO 31005KT 10SM CLR 34/M04 A3001 RMK AO2 SLP110 T03441044

More Conditions Fewer Conditions

10-Day Weather Forecast

×

Almanac

Astronomy

Aug. 02, 2015 Rise Set
Actual Time
Civil Twilight
Nautical Twilight
Astronomical Twilight
Moon
Length of Visible Light
Length of Day
Tomorrow will be .
, % of the Moon is Illuminated

Today's Extremes

State Highs State Lows

Community

WunderPhotos

Upload Photos

1,843,370 photos uploaded!

WunderBlogs® & News

Nearby

Air Quality

  Air Quality AQ Index Pollutant
Not available.

Snow Depth

Station Depth Elevation

Earthquake Activity

City Distance Mag. Time & Date
Minimum magnitude displayed is 2.5.

Coastal Water Temperatures

Place Temperature

Stations

Nearby Weather Stations

Station Location Temp. Windchill Dew Point Humidity Wind Precip. Elev Updated Type